Terminal Aerodrome Forecast
Issued by NWS Nashville, TN

Home | Current Version | Previous Version | Text Only | Print | Product List | Glossary On
Versions: 1 2 3 4 5 6 7 8 9 10 11 12 13 14 15 16 17 18 19 20 21
961
FTUS44 KOHX 021120
TAFBNA
TAF
KBNA 021120Z 0212/0312 02008KT P6SM VCSH OVC019
     FM021600 36006KT P6SM VCSH OVC035
      TEMPO 0219/0223 5SM -TSRA OVC025CB=

USA.gov is the U.S. government's official web portal to all federal, state and local government web resources and services.